Time;durP1;ratioP1;P1;durP2;ratioP2;P2;SDS_P1;SDS_P2;PMS_P1;PMS_P2;Temp;Humidity;BMP_temperature;BMP_pressure;BME280_temperature;BME280_humidity;BME280_pressure;Samples;Min_cycle;Max_cycle;Signal;HPM_P1;HPM_P2
2022/02/03 00:02:05;;;;;;;;;11.50;10.00;;;;;;;;5054837;28;10016;-76
2022/02/03 00:04:39;;;;;;;;;9.50;6.25;;;;;;;;5052320;28;10392;-77
2022/02/03 00:07:12;;;;;;;;;5.25;5.25;;;;;;;;5062569;28;10181;-77
2022/02/03 00:10:04;;;;;;;;;7.00;7.00;;;;;;;;5060366;28;10133;-77
2022/02/03 00:26:28;;;;;;;;;2.50;2.50;;;;;;;;5066309;28;10010;-79
2022/02/03 00:28:56;;;;;;;;;2.50;2.50;;;;;;;;5064062;28;10150;-74
2022/02/03 00:31:37;;;;;;;;;3.00;3.00;;;;;;;;5062923;28;10878;-76
2022/02/03 00:34:11;;;;;;;;;2.50;2.00;;;;;;;;5066545;28;10169;-74
2022/02/03 00:37:08;;;;;;;;;2.25;2.25;;;;;;;;5061645;28;10039;-73
2022/02/03 00:50:36;;;;;;;;;1.50;1.50;;;;;;;;5063483;28;10059;-74
2022/02/03 00:53:07;;;;;;;;;2.00;2.00;;;;;;;;5064812;28;10109;-77
2022/02/03 00:55:39;;;;;;;;;3.00;3.00;;;;;;;;5066298;28;10089;-76
2022/02/03 00:58:09;;;;;;;;;2.00;2.00;;;;;;;;5056848;28;10218;-75
2022/02/03 01:00:36;;;;;;;;;2.75;2.75;;;;;;;;5064921;28;10154;-77
2022/02/03 01:03:08;;;;;;;;;2.75;2.00;;;;;;;;5064550;28;11005;-77
2022/02/03 01:05:36;;;;;;;;;2.00;2.00;;;;;;;;5065231;28;10108;-75
2022/02/03 01:08:15;;;;;;;;;2.50;2.50;;;;;;;;5065692;28;10238;-75
2022/02/03 01:10:50;;;;;;;;;1.50;1.00;;;;;;;;5065587;28;10142;-77
2022/02/03 01:13:35;;;;;;;;;2.00;2.00;;;;;;;;5096131;28;10266;-74
2022/02/03 01:16:10;;;;;;;;;2.75;2.75;;;;;;;;5063016;28;10244;-77
2022/02/03 01:19:03;;;;;;;;;4.00;4.00;;;;;;;;5064649;28;10197;-76
2022/02/03 01:36:53;;;;;;;;;3.00;3.00;;;;;;;;5063233;28;10305;-77
2022/02/03 01:43:43;;;;;;;;;1.00;1.00;;;;;;;;5065384;28;10238;-75
2022/02/03 01:46:16;;;;;;;;;2.50;2.50;;;;;;;;5063159;28;10253;-77
2022/02/03 01:49:05;;;;;;;;;3.00;3.00;;;;;;;;5060213;28;10300;-74
2022/02/03 01:51:40;;;;;;;;;2.00;2.00;;;;;;;;5062616;28;10232;-74
2022/02/03 01:54:08;;;;;;;;;3.50;2.50;;;;;;;;5059387;28;10244;-75
2022/02/03 01:56:39;;;;;;;;;1.75;1.75;;;;;;;;5064500;28;11478;-77
2022/02/03 01:59:20;;;;;;;;;2.00;2.00;;;;;;;;5061875;28;10222;-78
2022/02/03 02:01:51;;;;;;;;;2.00;2.00;;;;;;;;5052636;28;10282;-74
2022/02/03 02:04:48;;;;;;;;;2.00;2.00;;;;;;;;5063608;28;10320;-75
2022/02/03 02:07:28;;;;;;;;;3.00;3.00;;;;;;;;5062890;28;10156;-75
2022/02/03 02:10:18;;;;;;;;;1.50;1.50;;;;;;;;5064744;28;10342;-78
2022/02/03 02:13:09;;;;;;;;;3.00;3.00;;;;;;;;5060563;28;10253;-76
2022/02/03 02:38:27;;;;;;;;;2.50;2.50;;;;;;;;5061767;28;10836;-79
2022/02/03 02:43:57;;;;;;;;;3.00;3.00;;;;;;;;5061999;28;10242;-76
2022/02/03 02:46:32;;;;;;;;;3.00;3.00;;;;;;;;5058409;28;10340;-79
2022/02/03 02:49:27;;;;;;;;;2.75;1.25;;;;;;;;5063550;28;10183;-74
2022/02/03 02:52:01;;;;;;;;;2.00;2.00;;;;;;;;5081407;28;10199;-74
2022/02/03 02:54:54;;;;;;;;;3.00;2.00;;;;;;;;5063814;28;10187;-75
2022/02/03 03:01:07;;;;;;;;;5.50;3.00;;;;;;;;5051134;28;10274;-78
2022/02/03 03:04:01;;;;;;;;;3.25;1.75;;;;;;;;5059354;28;10363;-75
2022/02/03 03:31:55;;;;;;;;;2.75;2.75;;;;;;;;5034256;28;10221;-77
2022/02/03 03:34:45;;;;;;;;;3.50;3.50;;;;;;;;5057238;28;10297;-75
2022/02/03 03:37:16;;;;;;;;;5.50;4.50;;;;;;;;5061551;28;10344;-75
2022/02/03 03:39:49;;;;;;;;;4.50;4.50;;;;;;;;5062363;28;10316;-75
2022/02/03 03:42:26;;;;;;;;;5.75;5.75;;;;;;;;5062005;28;10367;-74
2022/02/03 03:44:56;;;;;;;;;3.25;0.75;;;;;;;;5058405;28;10378;-75
2022/02/03 03:47:27;;;;;;;;;6.00;6.00;;;;;;;;5061748;28;11219;-75
2022/02/03 03:50:03;;;;;;;;;2.00;2.00;;;;;;;;5063106;28;10461;-74
2022/02/03 03:52:32;;;;;;;;;5.50;5.50;;;;;;;;5058987;28;10388;-77
2022/02/03 03:55:11;;;;;;;;;5.00;5.00;;;;;;;;5061856;28;10463;-78
2022/02/03 03:57:58;;;;;;;;;4.50;4.50;;;;;;;;5054930;28;10483;-76
2022/02/03 04:00:47;;;;;;;;;1.75;1.75;;;;;;;;5064701;27;10422;-78
2022/02/03 04:37:43;;;;;;;;;6.25;4.00;;;;;;;;5064804;28;10568;-75
2022/02/03 04:40:37;;;;;;;;;6.75;5.00;;;;;;;;5065490;28;11327;-78
2022/02/03 04:43:56;;;;;;;;;6.25;6.25;;;;;;;;5059011;28;10664;-77
2022/02/03 04:55:53;;;;;;;;;7.00;5.75;;;;;;;;5062700;28;10575;-75
2022/02/03 05:04:35;;;;;;;;;9.00;5.00;;;;;;;;5065903;28;10842;-78
2022/02/03 05:07:26;;;;;;;;;6.50;6.00;;;;;;;;5063442;28;10790;-76
2022/02/03 05:10:21;;;;;;;;;8.50;8.50;;;;;;;;5063032;28;10698;-74
2022/02/03 05:13:09;;;;;;;;;7.75;7.00;;;;;;;;5066406;28;10773;-75
2022/02/03 05:16:10;;;;;;;;;6.75;6.50;;;;;;;;5065096;28;10886;-74
2022/02/03 05:25:29;;;;;;;;;7.00;5.00;;;;;;;;5032385;28;10882;-75
2022/02/03 05:46:37;;;;;;;;;2.00;2.00;;;;;;;;5020807;28;10866;-74
2022/02/03 05:49:46;;;;;;;;;3.00;3.00;;;;;;;;5054378;28;10624;-75
2022/02/03 06:01:08;;;;;;;;;1.00;1.00;;;;;;;;5065893;28;10632;-75
2022/02/03 06:06:32;;;;;;;;;5.00;5.00;;;;;;;;5064717;28;10939;-74
2022/02/03 06:09:08;;;;;;;;;7.25;5.75;;;;;;;;5066507;28;10796;-74
2022/02/03 06:14:25;;;;;;;;;9.75;9.75;;;;;;;;5066895;28;11015;-74
2022/02/03 06:17:05;;;;;;;;;9.00;9.00;;;;;;;;5065859;28;10957;-74
2022/02/03 06:22:26;;;;;;;;;9.50;6.25;;;;;;;;5064865;28;10761;-75
2022/02/03 06:27:39;;;;;;;;;9.00;9.00;;;;;;;;5061832;28;10937;-80
2022/02/03 06:30:08;;;;;;;;;5.00;5.00;;;;;;;;5061554;28;10885;-82
2022/02/03 06:32:40;;;;;;;;;10.00;10.00;;;;;;;;5062681;28;11101;-83
2022/02/03 06:35:09;;;;;;;;;8.00;8.00;;;;;;;;5065522;28;11075;-83
2022/02/03 06:40:18;;;;;;;;;6.75;6.25;;;;;;;;5063268;28;11070;-83
2022/02/03 06:42:46;;;;;;;;;7.00;7.00;;;;;;;;5060797;28;10995;-82
2022/02/03 06:45:17;;;;;;;;;10.00;9.00;;;;;;;;5056672;28;10957;-83
2022/02/03 06:48:00;;;;;;;;;7.00;7.00;;;;;;;;5064565;28;11118;-83
2022/02/03 06:50:32;;;;;;;;;10.25;10.25;;;;;;;;5064108;28;11891;-83
2022/02/03 06:53:05;;;;;;;;;6.25;6.25;;;;;;;;5064681;28;11086;-83
2022/02/03 06:55:43;;;;;;;;;5.50;5.50;;;;;;;;5064646;28;11759;-83
2022/02/03 06:58:15;;;;;;;;;4.50;4.50;;;;;;;;5056514;28;11730;-83
2022/02/03 07:00:51;;;;;;;;;5.75;5.75;;;;;;;;5046742;28;10738;-84
2022/02/03 07:03:23;;;;;;;;;10.75;8.50;;;;;;;;5063225;28;11938;-83
2022/02/03 07:05:50;;;;;;;;;8.75;8.75;;;;;;;;5064850;28;10915;-83
2022/02/03 07:08:20;;;;;;;;;6.00;6.00;;;;;;;;5062782;28;11717;-84
2022/02/03 07:10:49;;;;;;;;;9.50;9.00;;;;;;;;5064849;28;11062;-83
2022/02/03 07:13:17;;;;;;;;;10.50;9.25;;;;;;;;5063908;28;11014;-83
2022/02/03 07:15:44;;;;;;;;;6.50;6.00;;;;;;;;5061222;28;11040;-83
2022/02/03 07:18:11;;;;;;;;;8.75;6.00;;;;;;;;5063670;28;11010;-83
2022/02/03 07:20:41;;;;;;;;;9.50;6.75;;;;;;;;5059158;28;10919;-83
2022/02/03 07:23:09;;;;;;;;;9.50;6.75;;;;;;;;5059738;28;10912;-83
2022/02/03 07:25:37;;;;;;;;;7.00;7.00;;;;;;;;5063851;28;10824;-83
2022/02/03 07:28:04;;;;;;;;;6.25;6.25;;;;;;;;5063963;28;11073;-83
2022/02/03 07:30:32;;;;;;;;;6.50;6.50;;;;;;;;5062934;28;10843;-83
2022/02/03 07:33:01;;;;;;;;;7.00;5.25;;;;;;;;5063011;28;10915;-84
2022/02/03 07:35:32;;;;;;;;;6.00;6.00;;;;;;;;5062519;28;10791;-84
2022/02/03 07:38:02;;;;;;;;;6.00;6.00;;;;;;;;5050309;28;10957;-85
2022/02/03 07:40:30;;;;;;;;;5.75;5.00;;;;;;;;5062910;28;10689;-83
2022/02/03 07:42:57;;;;;;;;;5.00;5.00;;;;;;;;5063500;28;10727;-83
2022/02/03 07:45:25;;;;;;;;;4.50;4.50;;;;;;;;5064636;28;10634;-83
2022/02/03 07:47:55;;;;;;;;;7.00;5.75;;;;;;;;5062509;28;10807;-83
2022/02/03 07:50:23;;;;;;;;;8.25;6.00;;;;;;;;5064021;28;10656;-83
2022/02/03 07:52:50;;;;;;;;;13.25;8.00;;;;;;;;5060601;28;10678;-83
2022/02/03 07:55:20;;;;;;;;;7.75;6.00;;;;;;;;5062041;28;11709;-83
2022/02/03 07:57:49;;;;;;;;;7.00;5.75;;;;;;;;5064209;28;10747;-82
2022/02/03 08:00:19;;;;;;;;;10.00;8.00;;;;;;;;5094507;28;10675;-82
2022/02/03 08:02:46;;;;;;;;;6.00;6.00;;;;;;;;5064006;28;10769;-83
2022/02/03 08:05:16;;;;;;;;;8.75;7.75;;;;;;;;5061537;28;10739;-83
2022/02/03 08:07:52;;;;;;;;;8.00;6.75;;;;;;;;5063382;28;10754;-83
2022/02/03 08:10:37;;;;;;;;;7.25;7.25;;;;;;;;5063170;28;10663;-82
2022/02/03 08:13:08;;;;;;;;;5.75;5.75;;;;;;;;5061731;28;10596;-82
2022/02/03 08:15:38;;;;;;;;;6.75;5.25;;;;;;;;5064594;28;10595;-83
2022/02/03 08:18:10;;;;;;;;;5.00;5.00;;;;;;;;5062779;28;10810;-83
2022/02/03 08:20:47;;;;;;;;;3.00;3.00;;;;;;;;5057198;28;10664;-83
2022/02/03 08:23:41;;;;;;;;;5.00;5.00;;;;;;;;5056349;28;11966;-83
2022/02/03 08:26:23;;;;;;;;;11.00;5.00;;;;;;;;5052975;28;10704;-83
2022/02/03 08:29:13;;;;;;;;;9.25;5.25;;;;;;;;5082640;28;10793;-82
2022/02/03 08:31:43;;;;;;;;;5.00;5.00;;;;;;;;5057319;28;11529;-82
2022/02/03 08:34:15;;;;;;;;;5.00;5.00;;;;;;;;5057435;28;10811;-83
2022/02/03 08:36:43;;;;;;;;;5.00;5.00;;;;;;;;5060311;28;10843;-81
2022/02/03 08:39:11;;;;;;;;;5.00;5.00;;;;;;;;5057456;28;11799;-79
2022/02/03 09:37:27;;;;;;;;;11.50;9.00;;;;;;;;5065673;28;11665;-79
2022/02/03 09:59:33;;;;;;;;;10.75;9.25;;;;;;;;5056392;28;11109;-82
2022/02/03 10:02:09;;;;;;;;;7.00;7.00;;;;;;;;5028864;28;10941;-82
2022/02/03 10:04:44;;;;;;;;;11.75;9.00;;;;;;;;5026845;28;11055;-77
2022/02/03 10:07:18;;;;;;;;;10.75;10.75;;;;;;;;5041252;28;11119;-85
2022/02/03 10:09:46;;;;;;;;;10.00;9.00;;;;;;;;5042579;28;11106;-84
2022/02/03 10:12:14;;;;;;;;;13.00;11.00;;;;;;;;5041845;28;10986;-84
2022/02/03 10:14:43;;;;;;;;;9.75;9.75;;;;;;;;5041681;28;10951;-85
2022/02/03 10:17:13;;;;;;;;;14.50;10.00;;;;;;;;5043176;28;10903;-85
2022/02/03 10:19:45;;;;;;;;;10.25;8.75;;;;;;;;5041404;28;11008;-77
2022/02/03 10:22:15;;;;;;;;;2.00;2.00;;;;;;;;5047484;28;11103;-79
2022/02/03 10:24:46;;;;;;;;;11.75;10.00;;;;;;;;5042760;28;11116;-81
2022/02/03 10:27:29;;;;;;;;;11.00;11.00;;;;;;;;5046480;28;10998;-79
2022/02/03 10:30:21;;;;;;;;;10.50;10.50;;;;;;;;5047226;28;11122;-80
2022/02/03 10:32:55;;;;;;;;;16.25;14.25;;;;;;;;5054409;28;11114;-88
2022/02/03 10:35:31;;;;;;;;;14.25;12.00;;;;;;;;5070694;28;11406;-85
2022/02/03 10:46:57;;;;;;;;;10.50;10.25;;;;;;;;5062228;28;11212;-80
2022/02/03 11:01:00;;;;;;;;;11.00;11.00;;;;;;;;5061004;28;11033;-84
2022/02/03 11:03:38;;;;;;;;;12.25;12.25;;;;;;;;5062711;28;11255;-84
2022/02/03 11:06:25;;;;;;;;;15.50;14.50;;;;;;;;5062293;28;11005;-85
2022/02/03 11:09:00;;;;;;;;;11.50;11.50;;;;;;;;5062889;28;10960;-86
2022/02/03 11:11:35;;;;;;;;;16.50;14.25;;;;;;;;5062887;28;11051;-83
2022/02/03 11:14:04;;;;;;;;;16.00;14.25;;;;;;;;5062393;28;11879;-85
2022/02/03 11:16:34;;;;;;;;;12.00;12.00;;;;;;;;5061038;28;11067;-81
2022/02/03 11:19:04;;;;;;;;;18.75;15.50;;;;;;;;5061649;28;10911;-85
2022/02/03 11:21:34;;;;;;;;;16.75;15.00;;;;;;;;5060630;28;11072;-85
2022/02/03 11:24:08;;;;;;;;;16.00;11.25;;;;;;;;5061234;28;11034;-86
2022/02/03 11:26:45;;;;;;;;;13.25;12.50;;;;;;;;5060869;28;11729;-86
2022/02/03 11:44:09;;;;;;;;;18.50;15.25;;;;;;;;4999447;28;12116;-79
2022/02/03 11:46:51;;;;;;;;;15.50;12.00;;;;;;;;5051780;28;11380;-82
2022/02/03 11:55:50;;;;;;;;;13.50;13.50;;;;;;;;5061198;28;11901;-83
2022/02/03 12:04:31;;;;;;;;;19.75;14.25;;;;;;;;5061585;28;11256;-75
2022/02/03 12:10:49;;;;;;;;;16.25;14.75;;;;;;;;5060824;28;11124;-84
2022/02/03 12:16:19;;;;;;;;;19.50;16.00;;;;;;;;5025523;28;11862;-74
2022/02/03 12:19:04;;;;;;;;;19.25;14.00;;;;;;;;5060908;28;10999;-79
2022/02/03 12:21:37;;;;;;;;;17.00;13.00;;;;;;;;5063424;28;12444;-77
2022/02/03 12:24:19;;;;;;;;;12.25;12.25;;;;;;;;5066040;28;11111;-78
2022/02/03 12:26:53;;;;;;;;;11.00;10.75;;;;;;;;5063962;28;11893;-77
2022/02/03 12:29:29;;;;;;;;;15.25;13.75;;;;;;;;5062132;28;11254;-80
2022/02/03 12:32:06;;;;;;;;;14.75;14.75;;;;;;;;5061306;28;11285;-73
2022/02/03 12:40:07;;;;;;;;;15.25;11.75;;;;;;;;5059229;28;11158;-82
2022/02/03 12:43:03;;;;;;;;;18.00;18.00;;;;;;;;5060254;28;12040;-78
2022/02/03 12:45:31;;;;;;;;;15.25;14.00;;;;;;;;5063655;28;11118;-76
2022/02/03 12:48:03;;;;;;;;;16.00;14.50;;;;;;;;5064097;28;11211;-77
2022/02/03 12:50:33;;;;;;;;;18.25;12.50;;;;;;;;5064652;28;11129;-77
2022/02/03 12:53:02;;;;;;;;;14.25;12.25;;;;;;;;5061289;28;11157;-75
2022/02/03 12:55:34;;;;;;;;;18.75;14.00;;;;;;;;5065441;28;11977;-80
2022/02/03 12:58:07;;;;;;;;;17.75;14.00;;;;;;;;5059975;28;12571;-75
2022/02/03 13:00:42;;;;;;;;;16.50;12.50;;;;;;;;5062095;28;11156;-75
2022/02/03 13:03:11;;;;;;;;;17.25;15.50;;;;;;;;5061582;28;10917;-75
2022/02/03 13:05:40;;;;;;;;;15.00;15.00;;;;;;;;5063279;28;11216;-76
2022/02/03 13:08:11;;;;;;;;;15.50;10.00;;;;;;;;5063398;28;11063;-76
2022/02/03 13:10:40;;;;;;;;;15.25;14.75;;;;;;;;5063020;28;11868;-76
2022/02/03 13:13:20;;;;;;;;;18.50;14.50;;;;;;;;5062328;28;11181;-77
2022/02/03 13:15:48;;;;;;;;;14.50;11.00;;;;;;;;5062396;28;11161;-76
2022/02/03 13:18:24;;;;;;;;;14.25;11.75;;;;;;;;5061645;28;11015;-76
2022/02/03 13:20:59;;;;;;;;;12.50;12.50;;;;;;;;5063618;28;11194;-78
2022/02/03 13:23:29;;;;;;;;;12.75;9.25;;;;;;;;5062147;28;11045;-76
2022/02/03 13:26:08;;;;;;;;;14.75;14.75;;;;;;;;5061942;28;11018;-78
2022/02/03 13:28:51;;;;;;;;;17.25;15.50;;;;;;;;5061452;28;11268;-76
2022/02/03 13:31:24;;;;;;;;;17.25;14.25;;;;;;;;5060507;28;11931;-76
2022/02/03 13:34:03;;;;;;;;;14.75;14.75;;;;;;;;5063229;28;11137;-74
2022/02/03 13:36:33;;;;;;;;;14.00;14.00;;;;;;;;5059055;28;11125;-74
2022/02/03 13:39:07;;;;;;;;;14.00;14.00;;;;;;;;5064242;28;11156;-76
2022/02/03 13:41:38;;;;;;;;;13.50;11.25;;;;;;;;5061698;28;11084;-75
2022/02/03 13:44:08;;;;;;;;;15.25;15.25;;;;;;;;5064868;28;11151;-74
2022/02/03 13:46:37;;;;;;;;;14.75;14.75;;;;;;;;5061878;28;11910;-75
2022/02/03 13:49:13;;;;;;;;;14.00;14.00;;;;;;;;5061935;28;11307;-79
2022/02/03 13:51:41;;;;;;;;;13.50;13.50;;;;;;;;5063617;28;11240;-77
2022/02/03 13:54:20;;;;;;;;;15.75;14.50;;;;;;;;5064266;28;11025;-82
2022/02/03 14:19:44;;;;;;;;;22.25;18.75;;;;;;;;5024801;28;11220;-75
2022/02/03 14:22:13;;;;;;;;;16.00;14.75;;;;;;;;5040546;28;11428;-77
2022/02/03 14:27:34;;;;;;;;;19.75;15.75;;;;;;;;5025710;28;11518;-78
2022/02/03 14:30:05;;;;;;;;;15.75;13.75;;;;;;;;5044629;28;11432;-81
2022/02/03 14:32:37;;;;;;;;;25.75;20.25;;;;;;;;5063203;28;11181;-79
2022/02/03 14:35:07;;;;;;;;;12.25;10.00;;;;;;;;5063461;28;11183;-77
2022/02/03 14:37:44;;;;;;;;;13.25;13.25;;;;;;;;5061981;28;11184;-77
2022/02/03 14:40:32;;;;;;;;;15.75;15.75;;;;;;;;5062376;28;11119;-79
2022/02/03 14:43:02;;;;;;;;;15.75;14.75;;;;;;;;5062355;28;11055;-77
2022/02/03 14:45:29;;;;;;;;;17.25;15.25;;;;;;;;5062279;28;11040;-76
2022/02/03 14:47:57;;;;;;;;;24.50;18.25;;;;;;;;5061979;28;11083;-76
2022/02/03 14:50:25;;;;;;;;;15.00;12.50;;;;;;;;5061245;28;11312;-76
2022/02/03 14:52:58;;;;;;;;;18.25;15.50;;;;;;;;5061733;28;11304;-76
2022/02/03 14:58:27;;;;;;;;;11.50;11.25;;;;;;;;5061413;28;11203;-78
2022/02/03 15:00:56;;;;;;;;;21.75;18.00;;;;;;;;5057376;28;11051;-76
2022/02/03 15:03:26;;;;;;;;;20.00;19.00;;;;;;;;5059794;28;12176;-79
2022/02/03 15:05:55;;;;;;;;;16.75;16.75;;;;;;;;5061237;28;11205;-77
2022/02/03 15:08:33;;;;;;;;;18.25;15.75;;;;;;;;5062442;28;11147;-77
2022/02/03 15:11:04;;;;;;;;;17.25;14.75;;;;;;;;5063426;28;11061;-78
2022/02/03 15:13:48;;;;;;;;;17.25;13.75;;;;;;;;5059047;28;11351;-77
2022/02/03 15:16:16;;;;;;;;;28.25;20.75;;;;;;;;5059302;28;11134;-76
2022/02/03 15:18:45;;;;;;;;;17.25;17.25;;;;;;;;5061938;28;11215;-79
2022/02/03 15:21:12;;;;;;;;;18.00;15.50;;;;;;;;5060674;28;11140;-82
2022/02/03 15:23:40;;;;;;;;;23.00;19.00;;;;;;;;5062514;28;10953;-79
2022/02/03 15:26:09;;;;;;;;;17.25;16.75;;;;;;;;5059032;28;11024;-79
2022/02/03 15:28:36;;;;;;;;;16.75;16.75;;;;;;;;5062906;28;10962;-80
2022/02/03 15:31:06;;;;;;;;;17.25;15.25;;;;;;;;5090677;27;11100;-78
2022/02/03 15:33:33;;;;;;;;;19.00;18.75;;;;;;;;5061831;28;11073;-78
2022/02/03 15:36:05;;;;;;;;;16.25;15.25;;;;;;;;5061734;28;11134;-79
2022/02/03 15:38:36;;;;;;;;;16.25;15.00;;;;;;;;5061156;28;10936;-78
2022/02/03 15:41:07;;;;;;;;;19.75;17.50;;;;;;;;5075624;28;11121;-79
2022/02/03 15:43:40;;;;;;;;;18.75;15.25;;;;;;;;5056605;28;11183;-78
2022/02/03 15:46:07;;;;;;;;;19.00;15.50;;;;;;;;5062408;28;11115;-78
2022/02/03 15:48:41;;;;;;;;;15.25;15.25;;;;;;;;5076588;28;10885;-78
2022/02/03 15:56:14;;;;;;;;;21.25;15.50;;;;;;;;5061242;28;10986;-78
2022/02/03 15:57:17;;;;;;;;;13.00;12.75;;;;;;;;5086215;28;11016;-79
2022/02/03 16:02:50;;;;;;;;;18.75;14.25;;;;;;;;5066333;28;10964;-78
2022/02/03 16:19:15;;;;;;;;;16.25;12.00;;;;;;;;5040542;28;10847;-80
2022/02/03 16:21:48;;;;;;;;;15.25;12.25;;;;;;;;5043413;28;10920;-80
2022/02/03 16:40:58;;;;;;;;;18.25;16.00;;;;;;;;5065986;28;11567;-78
2022/02/03 16:51:56;;;;;;;;;18.75;14.50;;;;;;;;5061014;28;10972;-78
2022/02/03 16:54:23;;;;;;;;;19.75;19.00;;;;;;;;5063279;28;11128;-79
2022/02/03 16:56:58;;;;;;;;;16.25;15.00;;;;;;;;5062327;28;10929;-77
2022/02/03 16:59:28;;;;;;;;;22.50;17.00;;;;;;;;5090159;28;11786;-77
2022/02/03 17:01:55;;;;;;;;;15.75;13.75;;;;;;;;5061713;28;10853;-77
2022/02/03 17:04:23;;;;;;;;;24.50;16.50;;;;;;;;5062300;28;11008;-80
2022/02/03 17:06:50;;;;;;;;;8.50;8.50;;;;;;;;5059445;28;10878;-78
2022/02/03 17:09:18;;;;;;;;;15.50;15.50;;;;;;;;5061211;28;10941;-74
2022/02/03 17:11:45;;;;;;;;;15.00;14.75;;;;;;;;5060293;28;10863;-78
2022/02/03 17:14:14;;;;;;;;;15.75;13.75;;;;;;;;5061669;28;10948;-76
2022/02/03 17:16:41;;;;;;;;;13.75;10.75;;;;;;;;5062814;28;11621;-82
2022/02/03 17:19:08;;;;;;;;;14.25;11.25;;;;;;;;5062187;28;10848;-82
2022/02/03 17:21:36;;;;;;;;;15.00;12.00;;;;;;;;5062628;28;10877;-78
2022/02/03 17:24:04;;;;;;;;;18.75;16.25;;;;;;;;5061096;28;10891;-73
2022/02/03 17:26:38;;;;;;;;;17.25;14.50;;;;;;;;5061623;28;10981;-74
2022/02/03 17:29:13;;;;;;;;;21.50;18.50;;;;;;;;5060709;28;10846;-78
2022/02/03 17:31:57;;;;;;;;;16.00;14.75;;;;;;;;5059544;28;11607;-74
2022/02/03 18:10:29;;;;;;;;;23.50;23.00;;;;;;;;5042660;28;11767;-77
2022/02/03 18:27:35;;;;;;;;;21.00;20.25;;;;;;;;5043126;28;11028;-79
2022/02/03 18:30:05;;;;;;;;;24.75;22.25;;;;;;;;5042412;28;11261;-74
2022/02/03 18:32:49;;;;;;;;;25.00;23.25;;;;;;;;5032820;28;11047;-73
2022/02/03 18:52:19;;;;;;;;;17.00;17.00;;;;;;;;4980520;28;11225;-74
2022/02/03 18:57:51;;;;;;;;;22.75;20.00;;;;;;;;4994609;28;11282;-73
2022/02/03 19:00:36;;;;;;;;;14.75;13.25;;;;;;;;5036304;28;11793;-75
2022/02/03 19:03:26;;;;;;;;;24.00;24.00;;;;;;;;5039992;28;11066;-75
2022/02/03 19:12:27;;;;;;;;;19.50;18.75;;;;;;;;5039492;28;11237;-75
2022/02/03 19:14:46;;;;;;;;;26.25;20.50;;;;;;;;5040498;28;11227;-75
2022/02/03 20:06:48;;;;;;;;;23.50;20.75;;;;;;;;5042968;28;11376;-75
2022/02/03 20:09:28;;;;;;;;;20.75;15.50;;;;;;;;5043416;28;11302;-74
2022/02/03 20:11:55;;;;;;;;;28.75;26.00;;;;;;;;5042263;28;11524;-73
2022/02/03 20:14:24;;;;;;;;;28.50;24.50;;;;;;;;5045011;28;11190;-75
2022/02/03 20:16:53;;;;;;;;;29.25;26.00;;;;;;;;5044838;28;11313;-75
2022/02/03 20:19:20;;;;;;;;;25.75;20.00;;;;;;;;5045011;28;11251;-73
2022/02/03 20:21:48;;;;;;;;;25.00;20.75;;;;;;;;5043809;28;11112;-74
2022/02/03 20:24:15;;;;;;;;;32.75;24.25;;;;;;;;5045120;28;11230;-74
2022/02/03 20:26:43;;;;;;;;;30.50;25.50;;;;;;;;5044605;28;11679;-74
2022/02/03 20:29:11;;;;;;;;;22.50;21.50;;;;;;;;5045209;28;11265;-74
2022/02/03 20:31:39;;;;;;;;;28.75;25.50;;;;;;;;5043083;28;11090;-74
2022/02/03 20:34:08;;;;;;;;;31.00;26.50;;;;;;;;5044070;28;11535;-73
2022/02/03 20:36:36;;;;;;;;;27.25;24.75;;;;;;;;5044273;28;11279;-75
2022/02/03 20:39:03;;;;;;;;;21.00;20.50;;;;;;;;5043459;28;12067;-76
2022/02/03 20:41:31;;;;;;;;;24.00;20.00;;;;;;;;5045150;28;11201;-74
2022/02/03 20:43:58;;;;;;;;;19.25;19.25;;;;;;;;5044311;28;11089;-74
2022/02/03 20:46:26;;;;;;;;;28.25;24.00;;;;;;;;5045803;28;11197;-74
2022/02/03 20:48:53;;;;;;;;;24.25;20.00;;;;;;;;5046231;28;11504;-74
2022/02/03 20:51:23;;;;;;;;;29.00;25.25;;;;;;;;5045985;28;11157;-73
2022/02/03 20:53:51;;;;;;;;;24.25;20.75;;;;;;;;5046712;28;11295;-74
2022/02/03 20:56:20;;;;;;;;;23.75;23.75;;;;;;;;5044191;28;11024;-74
2022/02/03 20:58:49;;;;;;;;;24.75;21.50;;;;;;;;5049083;28;11273;-73
2022/02/03 21:01:20;;;;;;;;;25.00;22.50;;;;;;;;5050252;28;11214;-74
2022/02/03 21:03:49;;;;;;;;;28.25;28.25;;;;;;;;5053325;28;12163;-74
2022/02/03 21:06:17;;;;;;;;;33.25;28.50;;;;;;;;5052731;28;11452;-74
2022/02/03 21:08:48;;;;;;;;;25.50;23.75;;;;;;;;5052597;28;11567;-74
2022/02/03 21:11:16;;;;;;;;;22.75;22.25;;;;;;;;5052950;28;11323;-75
2022/02/03 21:13:44;;;;;;;;;27.50;22.00;;;;;;;;5050835;28;11538;-75
2022/02/03 21:16:11;;;;;;;;;22.75;22.50;;;;;;;;5048903;28;11551;-74
2022/02/03 21:18:41;;;;;;;;;22.25;19.25;;;;;;;;5050112;28;11529;-74
2022/02/03 21:21:09;;;;;;;;;25.50;25.25;;;;;;;;5050202;28;11765;-76
2022/02/03 21:23:37;;;;;;;;;23.50;22.25;;;;;;;;5049599;28;11313;-74
2022/02/03 21:26:13;;;;;;;;;23.75;21.75;;;;;;;;5048383;28;11419;-74
2022/02/03 21:28:46;;;;;;;;;26.25;20.00;;;;;;;;5049895;28;11310;-74
2022/02/03 21:31:13;;;;;;;;;20.00;18.00;;;;;;;;5044495;28;11213;-75
2022/02/03 21:33:48;;;;;;;;;22.00;19.25;;;;;;;;5045506;28;11937;-74
2022/02/03 21:36:16;;;;;;;;;27.50;23.50;;;;;;;;5053173;28;11160;-75
2022/02/03 21:38:44;;;;;;;;;26.25;21.75;;;;;;;;5047286;28;11324;-75
2022/02/03 21:41:14;;;;;;;;;20.00;20.00;;;;;;;;5044665;28;11245;-74
2022/02/03 21:43:42;;;;;;;;;21.00;19.25;;;;;;;;5044645;28;11163;-74
2022/02/03 21:46:10;;;;;;;;;27.25;22.25;;;;;;;;5045969;28;11167;-74
2022/02/03 21:48:39;;;;;;;;;20.25;19.00;;;;;;;;5041561;28;11228;-74
2022/02/03 21:51:08;;;;;;;;;22.00;21.50;;;;;;;;5046468;28;11713;-74
2022/02/03 21:53:36;;;;;;;;;20.75;19.00;;;;;;;;5044428;28;11038;-73
2022/02/03 21:56:03;;;;;;;;;21.25;19.75;;;;;;;;5046551;28;11143;-74
2022/02/03 21:58:32;;;;;;;;;20.00;20.00;;;;;;;;5042359;28;11141;-75
2022/02/03 22:01:01;;;;;;;;;20.50;20.50;;;;;;;;5043433;28;11224;-74
2022/02/03 22:03:30;;;;;;;;;19.50;19.50;;;;;;;;5048567;28;11206;-74
2022/02/03 22:05:59;;;;;;;;;20.00;18.50;;;;;;;;5044370;28;11248;-73
2022/02/03 22:08:27;;;;;;;;;15.50;15.00;;;;;;;;5045198;28;11256;-74
2022/02/03 22:10:57;;;;;;;;;24.25;20.25;;;;;;;;5044906;28;11055;-74
2022/02/03 22:13:33;;;;;;;;;17.25;17.25;;;;;;;;5045195;28;11030;-74
2022/02/03 22:16:07;;;;;;;;;17.50;15.75;;;;;;;;5047087;28;11276;-74
2022/02/03 22:18:34;;;;;;;;;16.75;16.00;;;;;;;;5039344;28;11070;-74
2022/02/03 22:21:07;;;;;;;;;17.25;15.25;;;;;;;;5039197;28;11008;-75
2022/02/03 22:23:46;;;;;;;;;18.50;17.00;;;;;;;;5042409;28;11220;-73
2022/02/03 22:48:29;;;;;;;;;17.50;17.50;;;;;;;;5044052;28;11152;-74
2022/02/03 22:50:58;;;;;;;;;12.50;10.75;;;;;;;;5032207;28;11274;-73
2022/02/03 22:53:32;;;;;;;;;11.50;11.50;;;;;;;;5030867;28;11128;-73
2022/02/03 22:56:00;;;;;;;;;25.50;19.25;;;;;;;;5039649;28;11131;-74
2022/02/03 23:01:09;;;;;;;;;15.50;14.00;;;;;;;;5028193;28;11114;-74
2022/02/03 23:03:40;;;;;;;;;20.75;17.00;;;;;;;;5035045;28;11246;-74
2022/02/03 23:06:08;;;;;;;;;15.50;11.75;;;;;;;;5040748;28;11209;-74
2022/02/03 23:08:51;;;;;;;;;17.25;17.25;;;;;;;;5041840;28;11028;-74
2022/02/03 23:11:34;;;;;;;;;14.75;14.75;;;;;;;;5033443;28;11339;-73
2022/02/03 23:16:58;;;;;;;;;17.00;17.00;;;;;;;;5035215;28;11086;-74
2022/02/03 23:22:20;;;;;;;;;18.50;16.50;;;;;;;;5012352;28;11163;-74
2022/02/03 23:24:51;;;;;;;;;26.75;19.00;;;;;;;;5038432;28;11235;-74
2022/02/03 23:30:06;;;;;;;;;14.75;14.75;;;;;;;;5024655;28;11323;-74
2022/02/03 23:32:33;;;;;;;;;17.50;17.50;;;;;;;;5032955;28;11065;-74
2022/02/03 23:35:10;;;;;;;;;15.75;15.75;;;;;;;;5035205;28;11060;-74
2022/02/03 23:37:40;;;;;;;;;19.25;15.75;;;;;;;;5034204;28;11936;-73
2022/02/03 23:40:13;;;;;;;;;15.50;15.50;;;;;;;;5033726;28;10925;-74
2022/02/03 23:45:43;;;;;;;;;15.00;12.75;;;;;;;;5039646;28;11893;-74
2022/02/03 23:51:22;;;;;;;;;13.00;11.00;;;;;;;;5027392;28;10934;-74
